Saturday, November 18, 2017, 4:37 PM EST
Back to Local

KJGG, Williamsburg, Williamsburg-jamestown Airport

Location: Williamsburg, VA, United States Lat: 37.239
Local Time: 4:37 PM EST (21:37 GMT) Lon: -76.716
Time Zone: US/Eastern Elev: 49 ft

Show me the last for .
Show Decoded

2017-11-18 16:15 METAR KJGG 182115Z AUTO 19007G17KT 160V220 10SM CLR 18/09 A2973 RMK AO1 =
2017-11-18 15:55 METAR KJGG 182055Z AUTO 20008G17KT 10SM CLR 18/08 A2973 RMK AO1 =
2017-11-18 15:35 METAR KJGG 182035Z AUTO 21006G17KT 10SM CLR 18/08 A2974 RMK AO1 =
2017-11-18 15:15 METAR KJGG 182015Z AUTO 22012G20KT 180V240 10SM CLR 18/07 A2974 RMK AO1 =
2017-11-18 14:55 METAR KJGG 181955Z AUTO 22006KT 10SM CLR 18/07 A2975 RMK AO1 =
2017-11-18 14:35 METAR KJGG 181935Z AUTO 22008KT 180V250 10SM CLR 17/07 A2975 RMK AO1 =
2017-11-18 14:15 METAR KJGG 181915Z AUTO 19007G16KT 160V220 10SM CLR 17/06 A2976 RMK AO1 =
2017-11-18 13:55 METAR KJGG 181855Z AUTO 20005G18KT 10SM CLR 16/04 A2978 RMK AO1 =
2017-11-18 13:35 METAR KJGG 181835Z AUTO 00000KT 10SM CLR 16/04 A2979 RMK AO1 =
2017-11-18 13:15 METAR KJGG 181815Z AUTO 19009G14KT 10SM CLR 16/04 A2981 RMK AO1 =
2017-11-18 12:55 METAR KJGG 181755Z AUTO 19007KT 10SM CLR 16/03 A2982 RMK AO1 =
2017-11-18 12:35 METAR KJGG 181735Z AUTO 20008KT 10SM CLR 15/04 A2984 RMK AO1 =
2017-11-18 12:15 METAR KJGG 181715Z AUTO 18008KT 150V210 10SM CLR 15/04 A2986 RMK AO1 =
2017-11-18 11:55 METAR KJGG 181655Z AUTO 21007G14KT 170V230 10SM CLR 14/04 A2988 RMK AO1 =
2017-11-18 11:35 METAR KJGG 181635Z AUTO 20010G19KT 10SM CLR 14/03 A2990 RMK AO1 =
2017-11-18 11:15 METAR KJGG 181615Z AUTO 20007KT 170V250 10SM CLR 13/04 A2992 RMK AO1 =
2017-11-18 10:55 METAR KJGG 181555Z AUTO 20007KT 10SM CLR 12/04 A2994 RMK AO1 =
2017-11-18 10:35 METAR KJGG 181535Z AUTO 19009G15KT 10SM CLR 12/04 A2995 RMK AO1 =
2017-11-18 10:15 METAR KJGG 181515Z AUTO 21007KT 160V220 10SM CLR 11/04 A2997 RMK AO1 =
2017-11-18 09:55 METAR KJGG 181455Z AUTO 21011G16KT 190V250 10SM CLR 10/03 A2998 RMK AO1 =
2017-11-18 09:35 METAR KJGG 181435Z AUTO 21004G14KT 10SM CLR 09/03 A2999 RMK AO1 =
2017-11-18 09:15 METAR KJGG 181415Z AUTO 20008KT 10SM CLR 08/03 A3000 RMK AO1 =
2017-11-18 08:55 METAR KJGG 181355Z AUTO 19010KT 10SM CLR 08/03 A3000 RMK AO1 =
2017-11-18 08:35 METAR KJGG 181335Z AUTO 18010KT 10SM CLR 07/03 A3001 RMK AO1 =
2017-11-18 08:15 METAR KJGG 181315Z AUTO 18008KT 160V220 10SM CLR 07/03 A3002 RMK AO1 =
2017-11-18 07:55 METAR KJGG 181255Z AUTO 20003KT 10SM CLR 07/03 A3002 RMK AO1 =
2017-11-18 07:35 METAR KJGG 181235Z AUTO 18007KT 10SM CLR 06/02 A3002 RMK AO1 =
2017-11-18 07:15 METAR KJGG 181215Z AUTO 21004KT 10SM CLR 06/02 A3004 RMK AO1 =
2017-11-18 06:55 METAR KJGG 181155Z AUTO 00000KT 10SM CLR 06/02 A3004 RMK AO1 =
2017-11-18 06:35 METAR KJGG 181135Z AUTO 18006KT 10SM CLR 06/02 A3004 RMK AO1 =
2017-11-18 06:15 METAR KJGG 181115Z AUTO 18006KT 10SM CLR 06/02 A3006 RMK AO1 =
2017-11-18 05:55 METAR KJGG 181055Z AUTO 18007KT 10SM CLR 05/02 A3006 RMK AO1 =
2017-11-18 05:35 METAR KJGG 181035Z AUTO 17003KT 10SM CLR 04/02 A3007 RMK AO1 =
2017-11-18 05:15 METAR KJGG 181015Z AUTO 19005KT 10SM CLR 06/02 A3007 RMK AO1 =
2017-11-18 04:55 METAR KJGG 180955Z AUTO 18006KT 10SM CLR 06/02 A3007 RMK AO1 =
2017-11-18 04:35 METAR KJGG 180935Z AUTO 19007KT 10SM CLR 05/02 A3007 RMK AO1 =
2017-11-18 04:15 METAR KJGG 180915Z AUTO 19007KT 10SM CLR 05/02 A3007 RMK AO1 =
2017-11-18 03:55 METAR KJGG 180855Z AUTO 20005KT 10SM CLR 05/03 A3008 RMK AO1 =
2017-11-18 03:35 METAR KJGG 180835Z AUTO 00000KT 10SM CLR 04/04 A3008 RMK AO1 =
2017-11-18 03:15 METAR KJGG 180815Z AUTO 19003KT 10SM CLR 03/03 A3008 RMK AO1 =
2017-11-18 02:55 METAR KJGG 180755Z AUTO 00000KT 10SM CLR 02/02 A3009 RMK AO1 =
2017-11-18 02:35 METAR KJGG 180735Z AUTO 00000KT 10SM CLR 02/01 A3010 RMK AO1 =
2017-11-18 02:15 METAR KJGG 180715Z AUTO 00000KT 10SM CLR 02/01 A3011 RMK AO1 =
2017-11-18 01:55 METAR KJGG 180655Z AUTO 00000KT 10SM CLR 02/01 A3012 RMK AO1 =
2017-11-18 01:35 METAR KJGG 180635Z AUTO 00000KT 10SM CLR 02/01 A3012 RMK AO1 =
2017-11-18 01:15 METAR KJGG 180615Z AUTO 00000KT 10SM CLR 02/01 A3012 RMK AO1 =
2017-11-18 00:55 METAR KJGG 180555Z AUTO 00000KT 10SM CLR 02/01 A3012 RMK AO1 =
2017-11-18 00:35 METAR KJGG 180535Z AUTO 00000KT 10SM CLR 02/02 A3013 RMK AO1 =
2017-11-18 00:15 METAR KJGG 180515Z AUTO 00000KT 10SM CLR 02/02 A3014 RMK AO1 =
2017-11-17 23:55 METAR KJGG 180455Z AUTO 00000KT 10SM CLR 03/02 A3016 RMK AO1 =
2017-11-17 23:35 METAR KJGG 180435Z AUTO 00000KT 10SM CLR 02/01 A3016 RMK AO1 =
2017-11-17 23:15 METAR KJGG 180415Z AUTO 00000KT 10SM CLR 02/01 A3016 RMK AO1 =
2017-11-17 22:55 METAR KJGG 180355Z AUTO 00000KT 10SM CLR 02/02 A3015 RMK AO1 =
2017-11-17 22:35 METAR KJGG 180335Z AUTO 00000KT 10SM CLR 02/01 A3016 RMK AO1 =
2017-11-17 22:15 METAR KJGG 180315Z AUTO 00000KT 10SM CLR 03/01 A3016 RMK AO1 =
2017-11-17 21:55 METAR KJGG 180255Z AUTO 00000KT 10SM CLR 03/01 A3016 RMK AO1 =
2017-11-17 21:35 METAR KJGG 180235Z AUTO 00000KT 10SM CLR 03/01 A3016 RMK AO1 =
2017-11-17 21:15 METAR KJGG 180215Z AUTO 00000KT 10SM CLR 03/02 A3016 RMK AO1 =
2017-11-17 20:55 METAR KJGG 180155Z AUTO 00000KT 10SM CLR 03/01 A3015 RMK AO1 =
2017-11-17 20:35 METAR KJGG 180135Z AUTO 00000KT 10SM CLR 03/02 A3016 RMK AO1 =
2017-11-17 20:15 METAR KJGG 180115Z AUTO 00000KT 10SM CLR 03/01 A3016 RMK AO1 =
2017-11-17 19:55 METAR KJGG 180055Z AUTO 00000KT 10SM CLR 04/02 A3016 RMK AO1 =
2017-11-17 19:35 METAR KJGG 180035Z AUTO 00000KT 10SM CLR 04/02 A3017 RMK AO1 =
2017-11-17 19:15 METAR KJGG 180015Z AUTO 00000KT 10SM CLR 04/02 A3017 RMK AO1 =
2017-11-17 18:55 METAR KJGG 172355Z AUTO 00000KT 10SM CLR 05/02 A3017 RMK AO1 =
2017-11-17 18:35 METAR KJGG 172335Z AUTO 00000KT 10SM CLR 05/02 A3018 RMK AO1 =
2017-11-17 18:15 METAR KJGG 172315Z AUTO 00000KT 10SM CLR 06/02 A3018 RMK AO1 =
2017-11-17 17:55 METAR KJGG 172255Z AUTO 00000KT 10SM CLR 07/02 A3018 RMK AO1 =
2017-11-17 17:35 METAR KJGG 172235Z AUTO 00000KT 10SM CLR 07/02 A3018 RMK AO1 =
2017-11-17 17:15 METAR KJGG 172215Z AUTO 00000KT 10SM CLR 08/02 A3017 RMK AO1 =
2017-11-17 16:55 METAR KJGG 172155Z AUTO 00000KT 10SM CLR 09/01 A3017 RMK AO1 =

Support USWX by starting your Amazon purchase here.